sensor_id;sensor_type;location;lat;lon;timestamp;P1;durP1;ratioP1;P2;durP2;ratioP2
22425;SDS011;11380;50.822;15.790;2023-08-06T00:04:19;58.83;;;51.00;;
22425;SDS011;11380;50.822;15.790;2023-08-06T00:09:26;58.20;;;50.80;;
22425;SDS011;11380;50.822;15.790;2023-08-06T00:14:33;59.13;;;51.20;;
22425;SDS011;11380;50.822;15.790;2023-08-06T00:19:40;59.23;;;51.27;;
22425;SDS011;11380;50.822;15.790;2023-08-06T00:24:47;58.73;;;50.87;;
22425;SDS011;11380;50.822;15.790;2023-08-06T00:29:54;58.30;;;50.80;;
22425;SDS011;11380;50.822;15.790;2023-08-06T00:35:01;58.30;;;50.80;;
22425;SDS011;11380;50.822;15.790;2023-08-06T00:40:09;58.27;;;50.90;;
22425;SDS011;11380;50.822;15.790;2023-08-06T00:45:17;58.33;;;50.90;;
22425;SDS011;11380;50.822;15.790;2023-08-06T00:50:24;57.27;;;50.40;;
22425;SDS011;11380;50.822;15.790;2023-08-06T00:55:31;58.10;;;50.80;;
22425;SDS011;11380;50.822;15.790;2023-08-06T01:00:39;57.90;;;50.47;;
22425;SDS011;11380;50.822;15.790;2023-08-06T01:05:46;58.30;;;50.63;;
22425;SDS011;11380;50.822;15.790;2023-08-06T01:11:02;57.93;;;50.60;;
22425;SDS011;11380;50.822;15.790;2023-08-06T01:16:28;58.80;;;50.60;;
22425;SDS011;11380;50.822;15.790;2023-08-06T01:21:36;57.87;;;50.63;;
22425;SDS011;11380;50.822;15.790;2023-08-06T01:26:45;57.80;;;50.50;;
22425;SDS011;11380;50.822;15.790;2023-08-06T01:31:56;57.17;;;50.20;;
22425;SDS011;11380;50.822;15.790;2023-08-06T01:37:03;57.30;;;50.40;;
22425;SDS011;11380;50.822;15.790;2023-08-06T01:42:11;57.38;;;50.32;;
22425;SDS011;11380;50.822;15.790;2023-08-06T01:47:18;58.07;;;50.87;;
22425;SDS011;11380;50.822;15.790;2023-08-06T01:57:30;57.67;;;50.50;;
22425;SDS011;11380;50.822;15.790;2023-08-06T02:02:37;57.17;;;50.50;;
22425;SDS011;11380;50.822;15.790;2023-08-06T02:07:46;57.93;;;50.60;;
22425;SDS011;11380;50.822;15.790;2023-08-06T02:12:54;57.97;;;50.60;;
22425;SDS011;11380;50.822;15.790;2023-08-06T02:18:02;56.93;;;50.43;;
22425;SDS011;11380;50.822;15.790;2023-08-06T02:23:10;57.37;;;50.43;;
22425;SDS011;11380;50.822;15.790;2023-08-06T02:28:18;58.42;;;50.50;;
22425;SDS011;11380;50.822;15.790;2023-08-06T02:33:26;57.40;;;50.50;;
22425;SDS011;11380;50.822;15.790;2023-08-06T02:38:33;57.60;;;50.67;;
22425;SDS011;11380;50.822;15.790;2023-08-06T02:43:40;56.67;;;50.27;;
22425;SDS011;11380;50.822;15.790;2023-08-06T02:48:47;57.60;;;50.45;;
22425;SDS011;11380;50.822;15.790;2023-08-06T02:58:59;56.43;;;49.97;;
22425;SDS011;11380;50.822;15.790;2023-08-06T03:04:08;57.25;;;50.35;;
22425;SDS011;11380;50.822;15.790;2023-08-06T03:09:16;57.15;;;50.40;;
22425;SDS011;11380;50.822;15.790;2023-08-06T03:14:23;56.53;;;49.88;;
22425;SDS011;11380;50.822;15.790;2023-08-06T03:19:33;57.27;;;50.40;;
22425;SDS011;11380;50.822;15.790;2023-08-06T03:24:39;57.20;;;50.33;;
22425;SDS011;11380;50.822;15.790;2023-08-06T03:29:48;57.00;;;50.50;;
22425;SDS011;11380;50.822;15.790;2023-08-06T03:34:55;56.70;;;50.27;;
22425;SDS011;11380;50.822;15.790;2023-08-06T03:40:02;57.03;;;50.50;;
22425;SDS011;11380;50.822;15.790;2023-08-06T03:45:10;57.77;;;51.10;;
22425;SDS011;11380;50.822;15.790;2023-08-06T03:50:17;57.50;;;50.88;;
22425;SDS011;11380;50.822;15.790;2023-08-06T03:55:24;56.47;;;50.10;;
22425;SDS011;11380;50.822;15.790;2023-08-06T04:00:32;57.30;;;51.00;;
22425;SDS011;11380;50.822;15.790;2023-08-06T04:05:38;56.60;;;50.30;;
22425;SDS011;11380;50.822;15.790;2023-08-06T04:10:48;56.28;;;50.05;;
22425;SDS011;11380;50.822;15.790;2023-08-06T04:16:02;57.40;;;50.67;;
22425;SDS011;11380;50.822;15.790;2023-08-06T04:21:10;56.47;;;50.17;;
22425;SDS011;11380;50.822;15.790;2023-08-06T04:26:17;56.58;;;50.05;;
22425;SDS011;11380;50.822;15.790;2023-08-06T04:31:23;56.27;;;49.90;;
22425;SDS011;11380;50.822;15.790;2023-08-06T04:36:31;57.43;;;50.83;;
22425;SDS011;11380;50.822;15.790;2023-08-06T04:41:37;56.30;;;50.10;;
22425;SDS011;11380;50.822;15.790;2023-08-06T04:46:44;56.53;;;50.10;;
22425;SDS011;11380;50.822;15.790;2023-08-06T04:51:51;56.60;;;50.27;;
22425;SDS011;11380;50.822;15.790;2023-08-06T04:56:58;57.50;;;50.40;;
22425;SDS011;11380;50.822;15.790;2023-08-06T05:02:05;56.70;;;49.95;;
22425;SDS011;11380;50.822;15.790;2023-08-06T05:07:12;56.50;;;50.27;;
22425;SDS011;11380;50.822;15.790;2023-08-06T05:12:20;56.55;;;50.15;;
22425;SDS011;11380;50.822;15.790;2023-08-06T05:17:27;57.27;;;50.00;;
22425;SDS011;11380;50.822;15.790;2023-08-06T05:22:34;56.97;;;50.50;;
22425;SDS011;11380;50.822;15.790;2023-08-06T05:27:41;56.80;;;50.10;;
22425;SDS011;11380;50.822;15.790;2023-08-06T05:32:47;56.90;;;50.40;;
22425;SDS011;11380;50.822;15.790;2023-08-06T05:37:54;56.57;;;50.27;;
22425;SDS011;11380;50.822;15.790;2023-08-06T05:43:01;56.40;;;50.13;;
22425;SDS011;11380;50.822;15.790;2023-08-06T05:48:09;56.33;;;50.10;;
22425;SDS011;11380;50.822;15.790;2023-08-06T05:53:16;57.48;;;50.75;;
22425;SDS011;11380;50.822;15.790;2023-08-06T05:58:23;56.10;;;49.93;;
22425;SDS011;11380;50.822;15.790;2023-08-06T06:03:32;57.13;;;50.47;;
22425;SDS011;11380;50.822;15.790;2023-08-06T06:08:40;56.40;;;50.13;;
22425;SDS011;11380;50.822;15.790;2023-08-06T06:13:47;56.20;;;50.03;;
22425;SDS011;11380;50.822;15.790;2023-08-06T06:18:57;56.57;;;50.20;;
22425;SDS011;11380;50.822;15.790;2023-08-06T06:24:04;56.60;;;50.17;;
22425;SDS011;11380;50.822;15.790;2023-08-06T06:29:12;56.67;;;50.23;;
22425;SDS011;11380;50.822;15.790;2023-08-06T06:34:20;55.98;;;49.85;;
22425;SDS011;11380;50.822;15.790;2023-08-06T06:39:27;57.10;;;50.70;;
22425;SDS011;11380;50.822;15.790;2023-08-06T06:44:34;56.50;;;50.30;;
22425;SDS011;11380;50.822;15.790;2023-08-06T06:49:40;57.13;;;50.50;;
22425;SDS011;11380;50.822;15.790;2023-08-06T06:54:47;56.67;;;50.30;;
22425;SDS011;11380;50.822;15.790;2023-08-06T06:59:55;56.97;;;50.33;;
22425;SDS011;11380;50.822;15.790;2023-08-06T07:05:02;56.90;;;50.40;;
22425;SDS011;11380;50.822;15.790;2023-08-06T07:10:11;57.13;;;50.57;;
22425;SDS011;11380;50.822;15.790;2023-08-06T07:15:18;56.50;;;50.25;;
22425;SDS011;11380;50.822;15.790;2023-08-06T07:20:25;56.60;;;50.33;;
22425;SDS011;11380;50.822;15.790;2023-08-06T07:25:34;55.93;;;49.77;;
22425;SDS011;11380;50.822;15.790;2023-08-06T07:30:41;56.47;;;50.27;;
22425;SDS011;11380;50.822;15.790;2023-08-06T07:35:49;57.20;;;50.57;;
22425;SDS011;11380;50.822;15.790;2023-08-06T07:40:56;58.23;;;49.97;;
22425;SDS011;11380;50.822;15.790;2023-08-06T07:46:03;56.57;;;50.30;;
22425;SDS011;11380;50.822;15.790;2023-08-06T07:51:10;56.67;;;50.40;;
22425;SDS011;11380;50.822;15.790;2023-08-06T08:01:23;56.60;;;50.05;;
22425;SDS011;11380;50.822;15.790;2023-08-06T08:11:36;56.28;;;50.08;;
22425;SDS011;11380;50.822;15.790;2023-08-06T08:21:49;56.50;;;50.10;;
22425;SDS011;11380;50.822;15.790;2023-08-06T08:26:56;57.07;;;50.53;;
22425;SDS011;11380;50.822;15.790;2023-08-06T08:32:03;57.47;;;50.60;;
22425;SDS011;11380;50.822;15.790;2023-08-06T08:37:10;56.90;;;50.50;;
22425;SDS011;11380;50.822;15.790;2023-08-06T08:42:18;60.00;;;50.43;;
22425;SDS011;11380;50.822;15.790;2023-08-06T08:47:26;57.50;;;50.90;;
22425;SDS011;11380;50.822;15.790;2023-08-06T08:52:34;57.47;;;50.80;;
22425;SDS011;11380;50.822;15.790;2023-08-06T08:57:45;58.50;;;51.10;;
22425;SDS011;11380;50.822;15.790;2023-08-06T09:02:52;58.37;;;51.03;;
22425;SDS011;11380;50.822;15.790;2023-08-06T09:08:02;56.97;;;50.60;;
22425;SDS011;11380;50.822;15.790;2023-08-06T09:13:09;57.97;;;50.60;;
22425;SDS011;11380;50.822;15.790;2023-08-06T09:18:24;57.27;;;50.67;;
22425;SDS011;11380;50.822;15.790;2023-08-06T09:23:34;58.47;;;51.23;;
22425;SDS011;11380;50.822;15.790;2023-08-06T09:28:41;57.90;;;50.80;;
22425;SDS011;11380;50.822;15.790;2023-08-06T09:33:49;58.33;;;51.03;;
22425;SDS011;11380;50.822;15.790;2023-08-06T09:38:56;58.37;;;51.07;;
22425;SDS011;11380;50.822;15.790;2023-08-06T09:44:03;57.93;;;50.83;;
22425;SDS011;11380;50.822;15.790;2023-08-06T09:49:10;58.90;;;51.57;;
22425;SDS011;11380;50.822;15.790;2023-08-06T09:54:17;57.40;;;50.52;;
22425;SDS011;11380;50.822;15.790;2023-08-06T09:59:26;58.33;;;51.00;;
22425;SDS011;11380;50.822;15.790;2023-08-06T10:04:33;58.57;;;51.20;;
22425;SDS011;11380;50.822;15.790;2023-08-06T10:09:41;59.20;;;51.70;;
22425;SDS011;11380;50.822;15.790;2023-08-06T10:14:49;59.43;;;51.93;;
22425;SDS011;11380;50.822;15.790;2023-08-06T10:19:58;59.00;;;51.60;;
22425;SDS011;11380;50.822;15.790;2023-08-06T10:25:05;58.83;;;51.30;;
22425;SDS011;11380;50.822;15.790;2023-08-06T10:35:37;58.83;;;51.37;;
22425;SDS011;11380;50.822;15.790;2023-08-06T10:46:13;59.60;;;51.83;;
22425;SDS011;11380;50.822;15.790;2023-08-06T10:51:35;59.10;;;51.60;;
22425;SDS011;11380;50.822;15.790;2023-08-06T10:56:42;59.10;;;51.53;;
22425;SDS011;11380;50.822;15.790;2023-08-06T11:01:52;58.30;;;51.07;;
22425;SDS011;11380;50.822;15.790;2023-08-06T11:07:00;59.03;;;51.30;;
22425;SDS011;11380;50.822;15.790;2023-08-06T11:12:10;59.08;;;51.55;;
22425;SDS011;11380;50.822;15.790;2023-08-06T11:17:18;58.42;;;51.05;;
22425;SDS011;11380;50.822;15.790;2023-08-06T11:22:26;58.40;;;51.18;;
22425;SDS011;11380;50.822;15.790;2023-08-06T11:27:32;58.80;;;51.60;;
22425;SDS011;11380;50.822;15.790;2023-08-06T11:32:46;59.97;;;51.90;;
22425;SDS011;11380;50.822;15.790;2023-08-06T11:37:53;58.70;;;51.27;;
22425;SDS011;11380;50.822;15.790;2023-08-06T11:43:00;59.03;;;51.43;;
22425;SDS011;11380;50.822;15.790;2023-08-06T11:48:08;58.87;;;51.60;;
22425;SDS011;11380;50.822;15.790;2023-08-06T11:53:17;59.77;;;51.87;;
22425;SDS011;11380;50.822;15.790;2023-08-06T11:58:24;59.75;;;51.92;;
22425;SDS011;11380;50.822;15.790;2023-08-06T12:03:31;59.23;;;51.70;;
22425;SDS011;11380;50.822;15.790;2023-08-06T12:08:37;59.37;;;51.73;;
22425;SDS011;11380;50.822;15.790;2023-08-06T12:13:45;59.40;;;52.13;;
22425;SDS011;11380;50.822;15.790;2023-08-06T12:18:57;59.90;;;51.93;;
22425;SDS011;11380;50.822;15.790;2023-08-06T12:24:05;59.60;;;52.07;;
22425;SDS011;11380;50.822;15.790;2023-08-06T12:29:12;61.50;;;52.90;;
22425;SDS011;11380;50.822;15.790;2023-08-06T12:34:19;59.27;;;51.77;;
22425;SDS011;11380;50.822;15.790;2023-08-06T12:39:28;59.80;;;52.10;;
22425;SDS011;11380;50.822;15.790;2023-08-06T12:44:36;59.80;;;52.23;;
22425;SDS011;11380;50.822;15.790;2023-08-06T12:49:42;60.23;;;52.43;;
22425;SDS011;11380;50.822;15.790;2023-08-06T12:54:49;60.77;;;52.83;;
22425;SDS011;11380;50.822;15.790;2023-08-06T12:59:56;60.33;;;52.13;;
22425;SDS011;11380;50.822;15.790;2023-08-06T13:05:03;61.70;;;52.40;;
22425;SDS011;11380;50.822;15.790;2023-08-06T13:10:11;59.97;;;52.20;;
22425;SDS011;11380;50.822;15.790;2023-08-06T13:15:18;60.20;;;52.30;;
22425;SDS011;11380;50.822;15.790;2023-08-06T13:20:29;59.63;;;51.90;;
22425;SDS011;11380;50.822;15.790;2023-08-06T13:25:39;60.37;;;52.30;;
22425;SDS011;11380;50.822;15.790;2023-08-06T13:30:46;60.30;;;52.30;;
22425;SDS011;11380;50.822;15.790;2023-08-06T13:35:53;60.93;;;52.80;;
22425;SDS011;11380;50.822;15.790;2023-08-06T13:40:59;61.73;;;53.10;;
22425;SDS011;11380;50.822;15.790;2023-08-06T13:46:07;60.50;;;52.27;;
22425;SDS011;11380;50.822;15.790;2023-08-06T13:51:16;60.98;;;52.48;;
22425;SDS011;11380;50.822;15.790;2023-08-06T13:56:23;59.67;;;51.77;;
22425;SDS011;11380;50.822;15.790;2023-08-06T14:01:30;61.00;;;51.90;;
22425;SDS011;11380;50.822;15.790;2023-08-06T14:06:38;60.23;;;52.27;;
22425;SDS011;11380;50.822;15.790;2023-08-06T14:11:45;59.83;;;51.83;;
22425;SDS011;11380;50.822;15.790;2023-08-06T14:16:53;59.77;;;51.90;;
22425;SDS011;11380;50.822;15.790;2023-08-06T14:22:01;60.10;;;52.00;;
22425;SDS011;11380;50.822;15.790;2023-08-06T14:27:08;60.10;;;51.70;;
22425;SDS011;11380;50.822;15.790;2023-08-06T14:32:15;61.13;;;51.83;;
22425;SDS011;11380;50.822;15.790;2023-08-06T14:37:22;59.20;;;51.40;;
22425;SDS011;11380;50.822;15.790;2023-08-06T14:42:29;61.73;;;52.27;;
22425;SDS011;11380;50.822;15.790;2023-08-06T14:47:37;59.93;;;51.80;;
22425;SDS011;11380;50.822;15.790;2023-08-06T14:52:44;59.03;;;51.90;;
22425;SDS011;11380;50.822;15.790;2023-08-06T14:57:52;61.50;;;52.50;;
22425;SDS011;11380;50.822;15.790;2023-08-06T15:02:59;94.60;;;72.33;;
22425;SDS011;11380;50.822;15.790;2023-08-06T15:08:08;59.20;;;51.77;;
22425;SDS011;11380;50.822;15.790;2023-08-06T15:13:14;60.03;;;52.23;;
22425;SDS011;11380;50.822;15.790;2023-08-06T15:18:22;59.87;;;51.80;;
22425;SDS011;11380;50.822;15.790;2023-08-06T15:23:29;59.80;;;51.50;;
22425;SDS011;11380;50.822;15.790;2023-08-06T15:28:36;59.23;;;51.57;;
22425;SDS011;11380;50.822;15.790;2023-08-06T15:33:43;59.60;;;51.80;;
22425;SDS011;11380;50.822;15.790;2023-08-06T15:38:50;59.63;;;51.87;;
22425;SDS011;11380;50.822;15.790;2023-08-06T15:43:57;60.77;;;52.40;;
22425;SDS011;11380;50.822;15.790;2023-08-06T15:49:03;60.12;;;52.13;;
22425;SDS011;11380;50.822;15.790;2023-08-06T15:54:10;60.03;;;52.25;;
22425;SDS011;11380;50.822;15.790;2023-08-06T15:59:20;59.90;;;51.90;;
22425;SDS011;11380;50.822;15.790;2023-08-06T16:04:30;59.50;;;52.17;;
22425;SDS011;11380;50.822;15.790;2023-08-06T16:09:37;60.37;;;52.93;;
22425;SDS011;11380;50.822;15.790;2023-08-06T16:14:44;60.27;;;52.33;;
22425;SDS011;11380;50.822;15.790;2023-08-06T16:19:51;60.57;;;52.10;;
22425;SDS011;11380;50.822;15.790;2023-08-06T16:24:58;60.00;;;52.53;;
22425;SDS011;11380;50.822;15.790;2023-08-06T16:30:05;59.70;;;52.17;;
22425;SDS011;11380;50.822;15.790;2023-08-06T16:35:13;60.57;;;53.27;;
22425;SDS011;11380;50.822;15.790;2023-08-06T16:40:21;60.13;;;52.13;;
22425;SDS011;11380;50.822;15.790;2023-08-06T16:45:29;60.37;;;52.50;;
22425;SDS011;11380;50.822;15.790;2023-08-06T16:50:45;60.00;;;52.50;;
22425;SDS011;11380;50.822;15.790;2023-08-06T16:55:53;62.20;;;51.97;;
22425;SDS011;11380;50.822;15.790;2023-08-06T17:01:04;59.87;;;52.60;;
22425;SDS011;11380;50.822;15.790;2023-08-06T17:06:11;58.90;;;52.03;;
22425;SDS011;11380;50.822;15.790;2023-08-06T17:11:19;59.73;;;51.97;;
22425;SDS011;11380;50.822;15.790;2023-08-06T17:16:28;59.27;;;52.17;;
22425;SDS011;11380;50.822;15.790;2023-08-06T17:21:37;59.03;;;52.00;;
22425;SDS011;11380;50.822;15.790;2023-08-06T17:26:47;59.23;;;52.60;;
22425;SDS011;11380;50.822;15.790;2023-08-06T17:31:56;58.60;;;52.13;;
22425;SDS011;11380;50.822;15.790;2023-08-06T17:37:04;59.77;;;52.43;;
22425;SDS011;11380;50.822;15.790;2023-08-06T17:42:11;59.33;;;52.43;;
22425;SDS011;11380;50.822;15.790;2023-08-06T17:47:18;88.15;;;59.70;;
22425;SDS011;11380;50.822;15.790;2023-08-06T17:52:26;102.45;;;64.20;;
22425;SDS011;11380;50.822;15.790;2023-08-06T17:57:34;124.47;;;72.37;;
22425;SDS011;11380;50.822;15.790;2023-08-06T18:02:42;68.07;;;54.33;;
22425;SDS011;11380;50.822;15.790;2023-08-06T18:07:49;60.83;;;52.57;;
22425;SDS011;11380;50.822;15.790;2023-08-06T18:12:56;60.77;;;52.90;;
22425;SDS011;11380;50.822;15.790;2023-08-06T18:18:04;61.07;;;52.70;;
22425;SDS011;11380;50.822;15.790;2023-08-06T18:23:10;60.80;;;52.70;;
22425;SDS011;11380;50.822;15.790;2023-08-06T18:28:17;59.67;;;52.47;;
22425;SDS011;11380;50.822;15.790;2023-08-06T18:33:24;60.03;;;52.43;;
22425;SDS011;11380;50.822;15.790;2023-08-06T18:38:32;60.40;;;52.33;;
22425;SDS011;11380;50.822;15.790;2023-08-06T18:43:39;60.23;;;52.57;;
22425;SDS011;11380;50.822;15.790;2023-08-06T18:48:46;61.20;;;52.90;;
22425;SDS011;11380;50.822;15.790;2023-08-06T18:53:53;61.63;;;53.67;;
22425;SDS011;11380;50.822;15.790;2023-08-06T18:59:00;62.47;;;53.87;;
22425;SDS011;11380;50.822;15.790;2023-08-06T19:04:08;61.25;;;53.63;;
22425;SDS011;11380;50.822;15.790;2023-08-06T19:09:15;63.97;;;53.47;;
22425;SDS011;11380;50.822;15.790;2023-08-06T19:14:23;61.17;;;53.10;;
22425;SDS011;11380;50.822;15.790;2023-08-06T19:19:31;61.37;;;53.80;;
22425;SDS011;11380;50.822;15.790;2023-08-06T19:24:39;60.83;;;53.23;;
22425;SDS011;11380;50.822;15.790;2023-08-06T19:29:46;63.37;;;53.80;;
22425;SDS011;11380;50.822;15.790;2023-08-06T19:34:53;61.97;;;53.70;;
22425;SDS011;11380;50.822;15.790;2023-08-06T19:40:00;62.73;;;54.17;;
22425;SDS011;11380;50.822;15.790;2023-08-06T19:45:08;62.60;;;53.60;;
22425;SDS011;11380;50.822;15.790;2023-08-06T19:50:17;62.53;;;53.97;;
22425;SDS011;11380;50.822;15.790;2023-08-06T20:00:30;64.30;;;54.50;;
22425;SDS011;11380;50.822;15.790;2023-08-06T20:05:37;65.03;;;55.10;;
22425;SDS011;11380;50.822;15.790;2023-08-06T20:10:47;62.63;;;54.80;;
22425;SDS011;11380;50.822;15.790;2023-08-06T20:15:56;64.37;;;55.43;;
22425;SDS011;11380;50.822;15.790;2023-08-06T20:21:05;67.07;;;56.80;;
22425;SDS011;11380;50.822;15.790;2023-08-06T20:26:12;69.80;;;57.33;;
22425;SDS011;11380;50.822;15.790;2023-08-06T20:31:19;67.20;;;56.83;;
22425;SDS011;11380;50.822;15.790;2023-08-06T20:36:26;66.35;;;56.40;;
22425;SDS011;11380;50.822;15.790;2023-08-06T20:41:33;65.13;;;55.87;;
22425;SDS011;11380;50.822;15.790;2023-08-06T20:46:41;62.53;;;54.33;;
22425;SDS011;11380;50.822;15.790;2023-08-06T20:51:48;62.13;;;53.70;;
22425;SDS011;11380;50.822;15.790;2023-08-06T20:56:56;61.43;;;53.87;;
22425;SDS011;11380;50.822;15.790;2023-08-06T21:02:03;61.87;;;53.67;;
22425;SDS011;11380;50.822;15.790;2023-08-06T21:07:11;61.87;;;53.53;;
22425;SDS011;11380;50.822;15.790;2023-08-06T21:12:18;61.58;;;53.90;;
22425;SDS011;11380;50.822;15.790;2023-08-06T21:17:26;63.53;;;53.70;;
22425;SDS011;11380;50.822;15.790;2023-08-06T21:22:33;63.43;;;54.10;;
22425;SDS011;11380;50.822;15.790;2023-08-06T21:27:39;64.23;;;53.87;;
22425;SDS011;11380;50.822;15.790;2023-08-06T21:32:48;63.33;;;54.77;;
22425;SDS011;11380;50.822;15.790;2023-08-06T21:43:00;61.08;;;53.35;;
22425;SDS011;11380;50.822;15.790;2023-08-06T21:48:08;62.48;;;53.98;;
22425;SDS011;11380;50.822;15.790;2023-08-06T21:53:15;61.80;;;53.93;;
22425;SDS011;11380;50.822;15.790;2023-08-06T21:58:22;61.60;;;53.87;;
22425;SDS011;11380;50.822;15.790;2023-08-06T22:03:30;61.67;;;53.73;;
22425;SDS011;11380;50.822;15.790;2023-08-06T22:08:37;61.17;;;54.30;;
22425;SDS011;11380;50.822;15.790;2023-08-06T22:13:45;62.00;;;54.30;;
22425;SDS011;11380;50.822;15.790;2023-08-06T22:18:52;61.33;;;53.73;;
22425;SDS011;11380;50.822;15.790;2023-08-06T22:23:59;60.13;;;53.27;;
22425;SDS011;11380;50.822;15.790;2023-08-06T22:29:08;60.93;;;53.67;;
22425;SDS011;11380;50.822;15.790;2023-08-06T22:34:15;60.27;;;53.27;;
22425;SDS011;11380;50.822;15.790;2023-08-06T22:39:22;59.85;;;52.95;;
22425;SDS011;11380;50.822;15.790;2023-08-06T22:44:30;60.10;;;53.20;;
22425;SDS011;11380;50.822;15.790;2023-08-06T22:49:37;60.97;;;52.73;;
22425;SDS011;11380;50.822;15.790;2023-08-06T22:54:44;59.80;;;52.67;;
22425;SDS011;11380;50.822;15.790;2023-08-06T22:59:53;59.67;;;52.67;;
22425;SDS011;11380;50.822;15.790;2023-08-06T23:05:01;60.27;;;52.93;;
22425;SDS011;11380;50.822;15.790;2023-08-06T23:10:09;60.63;;;53.27;;
22425;SDS011;11380;50.822;15.790;2023-08-06T23:15:17;61.13;;;52.83;;
22425;SDS011;11380;50.822;15.790;2023-08-06T23:20:24;62.50;;;53.03;;
22425;SDS011;11380;50.822;15.790;2023-08-06T23:25:33;60.78;;;52.60;;
22425;SDS011;11380;50.822;15.790;2023-08-06T23:30:42;59.67;;;52.77;;
22425;SDS011;11380;50.822;15.790;2023-08-06T23:35:51;60.80;;;53.43;;
22425;SDS011;11380;50.822;15.790;2023-08-06T23:40:58;61.43;;;53.13;;
22425;SDS011;11380;50.822;15.790;2023-08-06T23:46:05;64.07;;;53.10;;
22425;SDS011;11380;50.822;15.790;2023-08-06T23:51:12;60.26;;;53.44;;
